Time;durP1;ratioP1;P1;durP2;ratioP2;P2;SDS_P1;SDS_P2;PMS_P1;PMS_P2;Temp;Humidity;BMP_temperature;BMP_pressure;BME280_temperature;BME280_humidity;BME280_pressure;Samples;Min_cycle;Max_cycle;Signal;HPM_P1;HPM_P2
2023/03/20 00:01:51;;;;;;;15.95;6.63;;;9.40;99.90;;;;;;5074303;28;20032;-91
2023/03/20 00:04:17;;;;;;;14.68;5.97;;;9.30;99.90;;;;;;5074418;28;20036;-90
2023/03/20 00:06:42;;;;;;;12.35;5.35;;;9.30;99.90;;;;;;5091781;28;20382;-90
2023/03/20 00:09:08;;;;;;;16.90;6.93;;;9.30;99.90;;;;;;5090462;28;20028;-91
2023/03/20 00:11:47;;;;;;;16.10;6.60;;;9.30;99.90;;;;;;5091780;28;20089;-90
2023/03/20 00:14:16;;;;;;;15.02;7.18;;;9.20;99.90;;;;;;5074812;28;20618;-90
2023/03/20 00:16:43;;;;;;;13.68;5.93;;;9.20;99.90;;;;;;5073697;28;20036;-91
2023/03/20 00:19:18;;;;;;;13.50;6.50;;;9.20;99.90;;;;;;5091315;28;20127;-90
2023/03/20 00:21:46;;;;;;;13.15;6.70;;;9.20;99.90;;;;;;5073119;28;20039;-91
2023/03/20 00:24:13;;;;;;;14.02;6.45;;;9.20;99.90;;;;;;5091286;28;20044;-91
2023/03/20 00:26:39;;;;;;;18.00;8.07;;;9.20;99.90;;;;;;5090131;28;20075;-90
2023/03/20 00:29:06;;;;;;;14.65;7.18;;;9.20;99.90;;;;;;5090235;28;20036;-90
2023/03/20 00:31:33;;;;;;;16.60;7.05;;;9.10;99.90;;;;;;5073207;28;20034;-90
2023/03/20 00:34:02;;;;;;;19.50;7.88;;;9.20;99.90;;;;;;5073730;28;20040;-90
2023/03/20 00:36:28;;;;;;;16.27;8.25;;;9.20;99.90;;;;;;5073558;28;20077;-90
2023/03/20 00:38:56;;;;;;;15.77;6.72;;;9.20;99.90;;;;;;5072881;28;20028;-91
2023/03/20 00:41:25;;;;;;;17.27;8.40;;;9.10;99.90;;;;;;5073616;28;20817;-91
2023/03/20 00:43:58;;;;;;;20.30;8.48;;;9.10;99.90;;;;;;5073206;28;20032;-90
2023/03/20 00:46:24;;;;;;;;;;;9.10;99.90;;;;;;5089926;28;20039;-90
2023/03/20 00:48:50;;;;;;;20.70;8.57;;;9.10;99.90;;;;;;5090194;28;19927;-91
2023/03/20 00:51:16;;;;;;;19.65;8.20;;;9.10;99.90;;;;;;5087800;28;20043;-90
2023/03/20 00:53:42;;;;;;;21.95;9.25;;;9.10;99.90;;;;;;5090840;28;20059;-91
2023/03/20 00:56:33;;;;;;;19.55;9.38;;;9.10;99.90;;;;;;5073453;28;20497;-91
2023/03/20 00:59:00;;;;;;;21.15;9.15;;;9.10;99.90;;;;;;5073120;28;20043;-91
2023/03/20 01:01:27;;;;;;;16.13;7.75;;;9.10;99.90;;;;;;5089762;28;20043;-91
2023/03/20 01:03:53;;;;;;;20.85;8.60;;;9.10;99.90;;;;;;5089671;28;20516;-90
2023/03/20 01:06:19;;;;;;;18.83;8.60;;;9.10;99.90;;;;;;5090466;28;20047;-90
2023/03/20 01:08:45;;;;;;;18.58;8.85;;;9.10;99.90;;;;;;5073173;28;20647;-90
2023/03/20 01:11:12;;;;;;;22.60;9.23;;;9.10;99.90;;;;;;5073109;28;20040;-90
2023/03/20 01:13:39;;;;;;;20.17;8.82;;;9.10;99.90;;;;;;5073274;28;20062;-91
2023/03/20 01:16:06;;;;;;;15.18;8.07;;;9.10;99.90;;;;;;5073173;28;20032;-90
2023/03/20 01:18:32;;;;;;;16.95;7.60;;;9.10;99.90;;;;;;5072750;28;20061;-90
2023/03/20 01:20:59;;;;;;;15.40;7.28;;;9.10;99.90;;;;;;5073282;28;20043;-91
2023/03/20 01:23:25;;;;;;;15.68;6.13;;;9.00;99.90;;;;;;5072380;28;20630;-90
2023/03/20 01:25:52;;;;;;;16.60;6.45;;;9.00;99.90;;;;;;5073324;28;20545;-90
2023/03/20 01:28:22;;;;;;;14.43;6.85;;;9.00;99.90;;;;;;5071795;28;20066;-90
2023/03/20 01:30:48;;;;;;;16.92;5.68;;;9.00;99.90;;;;;;5073527;28;20127;-90
2023/03/20 01:33:20;;;;;;;16.80;6.35;;;9.00;99.90;;;;;;5090403;28;20036;-90
2023/03/20 01:35:47;;;;;;;17.17;5.57;;;9.00;99.90;;;;;;5090104;28;20118;-91
2023/03/20 01:38:19;;;;;;;20.05;5.60;;;9.00;99.90;;;;;;5074085;28;20032;-90
2023/03/20 01:40:56;;;;;;;12.07;4.68;;;9.00;99.90;;;;;;5076496;28;20044;-90
2023/03/20 01:43:24;;;;;;;13.80;4.90;;;8.90;99.90;;;;;;5094867;28;20082;-90
2023/03/20 01:46:08;;;;;;;11.15;4.68;;;8.90;99.90;;;;;;5076872;28;20040;-90
2023/03/20 01:48:49;;;;;;;11.88;4.35;;;8.90;99.90;;;;;;5076811;28;20405;-90
2023/03/20 01:51:26;;;;;;;12.88;4.53;;;8.90;99.90;;;;;;5093448;28;20044;-91
2023/03/20 01:54:02;;;;;;;13.70;4.38;;;8.90;99.90;;;;;;5094465;28;20036;-90
2023/03/20 01:56:31;;;;;;;15.00;4.03;;;8.80;99.90;;;;;;5075760;28;20127;-90
2023/03/20 01:59:01;;;;;;;10.48;4.57;;;8.80;99.90;;;;;;5076303;28;20075;-90
2023/03/20 02:01:28;;;;;;;13.98;5.13;;;8.80;99.90;;;;;;5094060;28;20032;-90
2023/03/20 02:03:55;;;;;;;12.65;3.90;;;8.80;99.90;;;;;;5092785;28;20767;-90
2023/03/20 02:06:22;;;;;;;11.18;4.35;;;8.80;99.90;;;;;;5075482;28;20541;-90
2023/03/20 02:08:50;;;;;;;12.05;4.72;;;8.80;99.90;;;;;;5092568;28;20071;-90
2023/03/20 02:11:18;;;;;;;11.32;4.60;;;8.80;99.90;;;;;;5076017;28;20100;-90
2023/03/20 02:13:45;;;;;;;11.98;4.88;;;8.80;99.90;;;;;;5093087;28;20493;-92
2023/03/20 02:16:15;;;;;;;11.93;5.47;;;8.70;99.90;;;;;;5075460;28;20115;-92
2023/03/20 02:18:44;;;;;;;13.98;4.95;;;8.70;99.90;;;;;;5092129;28;20036;-92
2023/03/20 02:21:51;;;;;;;17.52;4.90;;;8.70;99.90;;;;;;5075403;28;20040;-92
2023/03/20 02:24:34;;;;;;;19.83;5.70;;;8.70;99.90;;;;;;5029929;28;20104;-91
2023/03/20 02:27:19;;;;;;;12.52;4.93;;;8.60;99.90;;;;;;5076333;28;20036;-92
2023/03/20 02:30:05;;;;;;;15.07;4.85;;;8.70;99.90;;;;;;5092890;28;20123;-92
2023/03/20 02:32:49;;;;;;;16.17;5.65;;;8.60;99.90;;;;;;5092865;28;20071;-93
2023/03/20 02:35:20;;;;;;;15.77;5.82;;;8.60;99.90;;;;;;5077017;28;20036;-92
2023/03/20 02:38:03;;;;;;;15.40;6.57;;;8.60;99.90;;;;;;5075555;28;20032;-92
2023/03/20 02:41:24;;;;;;;14.02;6.28;;;8.60;99.90;;;;;;5076485;28;20493;-91
2023/03/20 02:44:01;;;;;;;13.73;5.55;;;8.60;99.90;;;;;;4979318;28;20049;-91
2023/03/20 02:46:46;;;;;;;15.65;6.13;;;8.60;99.90;;;;;;5093196;28;20044;-92
2023/03/20 02:49:32;;;;;;;17.83;7.35;;;8.60;99.90;;;;;;5091724;28;20048;-92
2023/03/20 02:52:09;;;;;;;18.10;6.93;;;8.60;99.90;;;;;;5076117;28;20097;-92
2023/03/20 02:54:47;;;;;;;17.77;7.80;;;8.60;99.90;;;;;;5093350;28;20040;-92
2023/03/20 02:57:44;;;;;;;19.92;7.97;;;8.60;99.90;;;;;;5067364;28;20036;-92
2023/03/20 03:00:18;;;;;;;24.10;8.40;;;8.60;99.90;;;;;;5075902;28;20070;-92
2023/03/20 03:02:50;;;;;;;22.90;8.10;;;8.60;99.90;;;;;;5075409;28;20040;-91
2023/03/20 03:05:22;;;;;;;18.58;7.65;;;8.50;99.90;;;;;;5092766;28;20462;-92
2023/03/20 03:07:52;;;;;;;19.00;7.43;;;8.60;99.90;;;;;;5092360;28;20401;-91
2023/03/20 03:10:29;;;;;;;14.55;7.03;;;8.50;99.90;;;;;;5092024;28;20036;-92
2023/03/20 03:12:57;;;;;;;19.40;8.40;;;8.50;99.90;;;;;;5075687;28;20032;-92
2023/03/20 03:15:34;;;;;;;18.08;8.07;;;8.50;99.90;;;;;;5072781;28;20067;-91
2023/03/20 03:18:04;;;;;;;19.15;7.78;;;8.50;99.90;;;;;;5055492;28;20036;-91
2023/03/20 03:20:33;;;;;;;20.55;9.85;;;8.50;99.90;;;;;;5073712;28;20040;-91
2023/03/20 03:22:59;;;;;;;18.48;8.75;;;8.50;99.90;;;;;;5075187;28;20093;-91
2023/03/20 03:25:28;;;;;;;22.75;8.27;;;8.50;99.90;;;;;;5092349;28;20040;-90
2023/03/20 03:28:09;;;;;;;21.58;8.65;;;8.50;99.90;;;;;;5092540;28;20052;-90
2023/03/20 03:30:38;;;;;;;16.15;7.00;;;8.50;99.90;;;;;;5074880;28;20036;-91
2023/03/20 03:33:23;;;;;;;23.00;9.40;;;8.50;99.90;;;;;;5075037;28;20032;-91
2023/03/20 03:35:52;;;;;;;19.33;9.23;;;8.50;99.90;;;;;;5075241;28;20036;-91
2023/03/20 03:38:32;;;;;;;17.50;8.50;;;8.50;99.90;;;;;;5091453;28;20044;-91
2023/03/20 03:41:18;;;;;;;18.48;8.02;;;8.50;99.90;;;;;;5091582;28;20051;-91
2023/03/20 03:44:04;;;;;;;18.75;8.90;;;8.50;99.90;;;;;;5091667;28;20043;-91
2023/03/20 03:46:34;;;;;;;17.77;8.55;;;8.50;99.90;;;;;;5074140;28;20040;-91
2023/03/20 03:49:03;;;;;;;21.75;8.45;;;8.50;99.90;;;;;;5091752;28;20043;-91
2023/03/20 03:51:32;;;;;;;17.90;8.02;;;8.50;99.90;;;;;;5091864;28;20051;-90
2023/03/20 03:54:12;;;;;;;15.85;7.53;;;8.50;99.90;;;;;;5074362;28;20044;-92
2023/03/20 03:56:41;;;;;;;18.13;7.63;;;8.50;99.90;;;;;;5075214;28;20070;-91
2023/03/20 03:59:32;;;;;;;20.73;8.98;;;8.50;99.90;;;;;;5090810;28;20059;-91
2023/03/20 04:02:00;;;;;;;17.35;7.13;;;8.50;99.90;;;;;;5073857;28;20044;-91
2023/03/20 04:04:27;;;;;;;16.17;6.63;;;8.40;99.90;;;;;;5073505;28;20699;-91
2023/03/20 04:06:53;;;;;;;18.85;7.97;;;8.50;99.90;;;;;;5074886;28;20055;-90
2023/03/20 04:09:19;;;;;;;15.07;6.82;;;8.50;99.90;;;;;;5091037;28;20404;-91
2023/03/20 04:11:50;;;;;;;18.58;6.90;;;8.40;99.90;;;;;;5074202;28;20148;-91
2023/03/20 04:14:16;;;;;;;12.68;6.07;;;8.40;99.90;;;;;;5073982;28;20044;-92
2023/03/20 04:16:42;;;;;;;15.05;6.97;;;8.50;99.90;;;;;;5090530;28;20039;-91
2023/03/20 04:19:08;;;;;;;14.85;5.80;;;8.50;99.90;;;;;;5073327;28;20058;-90
2023/03/20 04:21:34;;;;;;;12.43;5.05;;;8.50;99.90;;;;;;5090957;28;20552;-91
2023/03/20 04:24:00;;;;;;;14.18;5.45;;;8.50;99.90;;;;;;5073235;28;20040;-91
2023/03/20 04:26:26;;;;;;;13.15;5.85;;;8.50;99.90;;;;;;5091271;28;20035;-91
2023/03/20 04:28:51;;;;;;;13.30;5.95;;;8.40;99.90;;;;;;5073082;28;20067;-91
2023/03/20 04:31:17;;;;;;;12.10;5.28;;;8.40;99.90;;;;;;5091139;28;20090;-92
2023/03/20 04:33:44;;;;;;;16.42;6.95;;;8.40;99.90;;;;;;5073517;28;20036;-91
2023/03/20 04:36:10;;;;;;;12.55;6.03;;;8.40;99.90;;;;;;5073815;28;20036;-91
2023/03/20 04:38:35;;;;;;;13.15;5.07;;;8.40;99.90;;;;;;5073430;28;20559;-91
2023/03/20 04:41:02;;;;;;;12.02;4.82;;;8.40;99.90;;;;;;5090066;28;20043;-90
2023/03/20 04:43:28;;;;;;;14.73;5.40;;;8.40;99.90;;;;;;5074155;28;20681;-91
2023/03/20 04:45:53;;;;;;;14.68;5.45;;;8.40;99.90;;;;;;5090501;28;20115;-91
2023/03/20 04:48:19;;;;;;;13.95;5.10;;;8.40;99.90;;;;;;5073423;28;20109;-91
2023/03/20 04:50:49;;;;;;;10.82;4.70;;;8.40;99.90;;;;;;5073845;28;20127;-91
2023/03/20 04:53:16;;;;;;;12.30;5.47;;;8.30;99.90;;;;;;5090635;28;20101;-91
2023/03/20 04:55:45;;;;;;;15.77;5.82;;;8.30;99.90;;;;;;5074290;28;20560;-91
2023/03/20 04:58:11;;;;;;;11.52;5.35;;;8.30;99.90;;;;;;5089295;28;20055;-91
2023/03/20 05:00:37;;;;;;;13.90;5.57;;;8.30;99.90;;;;;;5089981;28;20047;-91
2023/03/20 05:03:02;;;;;;;15.75;5.53;;;8.30;99.90;;;;;;5073278;28;20501;-91
2023/03/20 05:05:28;;;;;;;14.05;6.32;;;8.30;99.90;;;;;;5088866;28;20051;-91
2023/03/20 05:07:54;;;;;;;13.15;5.50;;;8.30;99.90;;;;;;5090297;28;20047;-91
2023/03/20 05:10:19;;;;;;;17.85;6.57;;;8.30;99.90;;;;;;5089998;28;20036;-91
2023/03/20 05:12:46;;;;;;;14.77;6.93;;;8.30;99.90;;;;;;5093517;28;20044;-91
2023/03/20 05:15:11;;;;;;;14.82;6.93;;;8.30;99.90;;;;;;5080561;28;20036;-91
2023/03/20 05:17:37;;;;;;;13.25;6.05;;;8.30;99.90;;;;;;5080070;28;20116;-91
2023/03/20 05:20:04;;;;;;;17.48;6.43;;;8.30;99.90;;;;;;5080356;28;20040;-91
2023/03/20 05:22:29;;;;;;;16.70;6.78;;;8.30;99.90;;;;;;5079552;28;20040;-91
2023/03/20 05:24:55;;;;;;;16.33;7.43;;;8.30;99.90;;;;;;5080541;28;20046;-90
2023/03/20 05:27:21;;;;;;;15.25;7.28;;;8.30;99.90;;;;;;5080309;28;20032;-91
2023/03/20 05:29:46;;;;;;;14.73;6.97;;;8.30;99.90;;;;;;5096674;28;20508;-91
2023/03/20 05:32:12;;;;;;;11.95;5.63;;;8.20;99.90;;;;;;5080392;28;20040;-91
2023/03/20 05:34:38;;;;;;;18.10;8.20;;;8.20;99.90;;;;;;5080082;28;20035;-92
2023/03/20 05:37:03;;;;;;;17.48;7.78;;;8.20;99.90;;;;;;5097320;28;20040;-92
2023/03/20 05:39:32;;;;;;;15.18;8.15;;;8.20;99.90;;;;;;5096968;28;20092;-92
2023/03/20 05:41:57;;;;;;;14.98;6.88;;;8.20;99.90;;;;;;5079062;28;20130;-91
2023/03/20 05:44:23;;;;;;;19.70;9.10;;;8.20;99.90;;;;;;5080122;28;20481;-91
2023/03/20 05:46:49;;;;;;;16.75;7.72;;;8.20;99.90;;;;;;5079324;28;20062;-89
2023/03/20 05:49:15;;;;;;;17.73;9.52;;;8.20;99.90;;;;;;5079721;28;20541;-89
2023/03/20 05:51:40;;;;;;;17.42;9.00;;;8.20;99.90;;;;;;5096385;28;20036;-88
2023/03/20 05:54:06;;;;;;;15.60;8.52;;;8.20;99.90;;;;;;5096674;28;20051;-89
2023/03/20 05:56:32;;;;;;;19.80;9.55;;;8.20;99.90;;;;;;5079779;28;20031;-89
2023/03/20 05:58:57;;;;;;;16.05;7.82;;;8.20;99.90;;;;;;5078895;28;20170;-90
2023/03/20 06:01:23;;;;;;;15.43;7.78;;;8.20;99.90;;;;;;5079368;28;20059;-90
2023/03/20 06:03:49;;;;;;;17.38;9.25;;;8.20;99.90;;;;;;5079942;28;20044;-89
2023/03/20 06:06:15;;;;;;;16.70;7.68;;;8.20;99.90;;;;;;5078543;28;20036;-89
2023/03/20 06:08:41;;;;;;;14.70;8.27;;;8.20;99.90;;;;;;5079289;28;20409;-89
2023/03/20 06:11:07;;;;;;;15.93;8.05;;;8.20;99.90;;;;;;5079142;28;20040;-90
2023/03/20 06:13:33;;;;;;;14.35;6.90;;;8.20;99.90;;;;;;5079153;28;20036;-89
2023/03/20 06:15:59;;;;;;;15.48;8.00;;;8.20;99.90;;;;;;5079283;28;20119;-89
2023/03/20 06:18:25;;;;;;;14.02;6.45;;;8.20;99.90;;;;;;5079195;28;20040;-89
2023/03/20 06:20:56;;;;;;;15.70;6.70;;;8.20;99.90;;;;;;5096312;28;20404;-90
2023/03/20 06:23:22;;;;;;;12.52;5.57;;;8.20;99.90;;;;;;5095757;28;20042;-89
2023/03/20 06:25:48;;;;;;;14.90;6.30;;;8.20;99.90;;;;;;5076463;28;20130;-90
2023/03/20 06:28:15;;;;;;;11.73;6.07;;;8.20;99.90;;;;;;5075672;28;20123;-89
2023/03/20 06:30:42;;;;;;;13.98;6.45;;;8.20;99.90;;;;;;5076356;28;20536;-89
2023/03/20 06:33:08;;;;;;;11.43;5.55;;;8.20;99.90;;;;;;5073227;28;20059;-91
2023/03/20 06:35:34;;;;;;;13.43;6.63;;;8.20;99.90;;;;;;5102072;28;20041;-90
2023/03/20 06:38:00;;;;;;;13.32;5.70;;;8.20;99.90;;;;;;5076247;28;20036;-91
2023/03/20 06:40:29;;;;;;;8.93;3.92;;;8.30;99.90;;;;;;5076401;28;20040;-90
2023/03/20 06:42:55;;;;;;;17.60;7.15;;;8.30;99.90;;;;;;5070003;28;20072;-91
2023/03/20 06:45:21;;;;;;;10.65;5.60;;;8.30;99.90;;;;;;5066354;28;20032;-91
2023/03/20 06:47:47;;;;;;;15.73;6.43;;;8.30;99.90;;;;;;5091343;28;20088;-90
2023/03/20 06:50:14;;;;;;;14.25;6.35;;;8.30;99.90;;;;;;5076797;28;20119;-91
2023/03/20 06:52:40;;;;;;;15.23;6.28;;;8.30;99.90;;;;;;5076575;28;20036;-90
2023/03/20 06:55:06;;;;;;;16.48;7.13;;;8.40;99.90;;;;;;5092792;28;20169;-91
2023/03/20 06:57:32;;;;;;;17.35;6.75;;;8.40;99.90;;;;;;5075798;28;20040;-90
2023/03/20 06:59:59;;;;;;;14.55;5.93;;;8.40;99.90;;;;;;5075376;28;20051;-90
2023/03/20 07:02:24;;;;;;;15.35;5.78;;;8.40;99.90;;;;;;5075447;28;20048;-91
2023/03/20 07:04:51;;;;;;;13.63;5.15;;;8.40;99.90;;;;;;5090921;28;20040;-93
2023/03/20 07:07:17;;;;;;;12.88;5.28;;;8.40;99.90;;;;;;5086944;28;20524;-94
2023/03/20 07:09:44;;;;;;;18.35;6.40;;;8.40;99.90;;;;;;5072117;28;20042;-91
2023/03/20 07:12:15;;;;;;;16.02;6.15;;;8.50;99.90;;;;;;5057134;28;20407;-91
2023/03/20 07:14:41;;;;;;;11.90;5.72;;;8.50;99.90;;;;;;5074484;28;20032;-90
2023/03/20 07:17:08;;;;;;;12.68;5.63;;;8.50;99.90;;;;;;5092699;28;20485;-91
2023/03/20 07:19:37;;;;;;;17.15;5.28;;;8.50;99.90;;;;;;5074845;28;20082;-91
2023/03/20 07:22:06;;;;;;;14.07;5.68;;;8.50;99.90;;;;;;5074858;28;20119;-92
2023/03/20 07:24:33;;;;;;;16.30;5.80;;;8.50;99.90;;;;;;5075004;28;20032;-91
2023/03/20 07:26:59;;;;;;;14.32;5.90;;;8.50;99.90;;;;;;5074909;28;20047;-91
2023/03/20 07:29:25;;;;;;;11.98;5.00;;;8.50;99.90;;;;;;5075741;28;20036;-90
2023/03/20 07:31:50;;;;;;;13.38;5.47;;;8.50;99.90;;;;;;5075119;28;20168;-92
2023/03/20 07:34:16;;;;;;;13.73;5.13;;;8.60;99.90;;;;;;5075955;28;20051;-92
2023/03/20 07:36:42;;;;;;;15.32;5.75;;;8.60;99.90;;;;;;5074632;28;20032;-91
2023/03/20 07:39:08;;;;;;;15.52;5.20;;;8.60;99.90;;;;;;5074892;28;20047;-91
2023/03/20 07:41:36;;;;;;;10.90;4.32;;;8.60;99.90;;;;;;5092574;28;20058;-93
2023/03/20 07:44:02;;;;;;;14.77;5.32;;;8.60;99.90;;;;;;5075622;28;20541;-92
2023/03/20 07:46:28;;;;;;;17.33;5.85;;;8.60;99.90;;;;;;5074012;28;20051;-91
2023/03/20 07:48:55;;;;;;;13.40;5.07;;;8.60;99.90;;;;;;5092063;28;20039;-91
2023/03/20 07:51:21;;;;;;;15.73;5.57;;;8.60;99.90;;;;;;5074229;28;20070;-92
2023/03/20 07:53:46;;;;;;;14.00;5.82;;;8.60;99.90;;;;;;5073982;28;20500;-92
2023/03/20 07:56:12;;;;;;;14.20;5.40;;;8.60;99.90;;;;;;5091448;28;20389;-91
2023/03/20 07:58:37;;;;;;;13.40;5.60;;;8.70;99.90;;;;;;5091050;28;20409;-92
2023/03/20 08:01:03;;;;;;;16.40;6.13;;;8.70;99.90;;;;;;5073787;28;20036;-91
2023/03/20 08:03:29;;;;;;;13.80;6.55;;;8.70;99.90;;;;;;5074588;28;20028;-91
2023/03/20 08:05:55;;;;;;;14.00;6.10;;;8.70;99.90;;;;;;5091902;28;20097;-93
2023/03/20 08:08:20;;;;;;;11.52;5.40;;;8.80;99.90;;;;;;5074326;28;20047;-91
2023/03/20 08:10:47;;;;;;;14.98;5.95;;;8.80;99.90;;;;;;5074776;28;20491;-91
2023/03/20 08:13:12;;;;;;;13.75;6.18;;;8.80;99.90;;;;;;5075270;28;20058;-91
2023/03/20 08:15:38;;;;;;;15.57;6.47;;;8.80;99.90;;;;;;5074491;28;20489;-92
2023/03/20 08:18:04;;;;;;;12.45;5.50;;;8.80;99.90;;;;;;5074435;28;20032;-91
2023/03/20 08:20:30;;;;;;;14.40;6.13;;;8.80;99.90;;;;;;5073995;28;20032;-91
2023/03/20 08:22:56;;;;;;;15.10;6.65;;;8.80;99.90;;;;;;5074039;28;20041;-92
2023/03/20 08:25:22;;;;;;;18.50;6.45;;;8.90;99.90;;;;;;5075101;28;20044;-91
2023/03/20 08:27:47;;;;;;;13.55;6.70;;;8.90;99.90;;;;;;5073961;28;20047;-92
2023/03/20 08:30:13;;;;;;;14.95;6.30;;;8.90;99.90;;;;;;5073548;28;20413;-92
2023/03/20 08:32:39;;;;;;;16.23;7.22;;;9.00;99.90;;;;;;5090739;28;20036;-93
2023/03/20 08:35:07;;;;;;;15.93;6.82;;;9.00;99.90;;;;;;5074178;28;20055;-92
2023/03/20 08:37:34;;;;;;;17.95;7.90;;;9.00;99.90;;;;;;5073855;28;20426;-91
2023/03/20 08:40:25;;;;;;;14.93;6.13;;;9.10;99.90;;;;;;5073778;28;20043;-92
2023/03/20 08:42:51;;;;;;;15.38;6.75;;;9.10;99.90;;;;;;5073566;28;20048;-91
2023/03/20 08:45:17;;;;;;;19.58;7.68;;;9.20;99.90;;;;;;5067434;28;20040;-92
2023/03/20 08:47:42;;;;;;;15.52;6.55;;;9.20;99.90;;;;;;5080477;28;20036;-91
2023/03/20 08:50:09;;;;;;;17.85;6.53;;;9.30;99.90;;;;;;5079677;28;20428;-90
2023/03/20 08:52:35;;;;;;;15.25;6.70;;;9.30;99.90;;;;;;5097029;28;20127;-91
2023/03/20 08:55:01;;;;;;;15.32;8.00;;;9.30;99.90;;;;;;5081487;28;20062;-90
2023/03/20 08:57:26;;;;;;;17.08;7.50;;;9.40;99.90;;;;;;5096772;28;20040;-92
2023/03/20 08:59:52;;;;;;;16.30;7.22;;;9.40;99.90;;;;;;5093985;28;20040;-92
2023/03/20 09:02:18;;;;;;;15.55;6.78;;;9.50;99.90;;;;;;5079523;28;20032;-91
2023/03/20 09:04:43;;;;;;;19.17;7.82;;;9.50;99.90;;;;;;5101701;28;20041;-92
2023/03/20 09:07:09;;;;;;;14.40;7.05;;;9.60;99.90;;;;;;5080978;28;20024;-92
2023/03/20 09:09:35;;;;;;;13.27;7.07;;;9.70;99.90;;;;;;5077159;28;20040;-91
2023/03/20 09:12:01;;;;;;;11.30;6.03;;;9.70;99.90;;;;;;5071379;28;20043;-91
2023/03/20 09:14:27;;;;;;;15.90;7.22;;;9.80;99.90;;;;;;5089109;28;20481;-91
2023/03/20 09:16:53;;;;;;;15.25;7.30;;;9.80;99.90;;;;;;5072191;28;20447;-92
2023/03/20 09:19:19;;;;;;;15.20;6.78;;;9.80;99.90;;;;;;5069899;28;20037;-91
2023/03/20 09:21:45;;;;;;;17.88;7.53;;;9.90;99.90;;;;;;5053683;28;20041;-91
2023/03/20 09:24:11;;;;;;;14.60;6.28;;;9.90;99.90;;;;;;5081764;28;20064;-91
2023/03/20 09:26:37;;;;;;;15.95;6.75;;;9.90;99.90;;;;;;5090014;28;20067;-91
2023/03/20 09:29:04;;;;;;;14.82;6.32;;;10.00;99.90;;;;;;5089680;28;20040;-90
2023/03/20 09:31:29;;;;;;;12.95;6.18;;;10.00;99.90;;;;;;5073034;28;20040;-91
2023/03/20 09:33:55;;;;;;;16.33;5.82;;;10.10;99.90;;;;;;5090299;28;20063;-92
2023/03/20 09:36:21;;;;;;;14.20;6.35;;;10.20;99.90;;;;;;5088985;28;20033;-90
2023/03/20 09:38:46;;;;;;;15.57;5.93;;;10.30;99.90;;;;;;5089375;28;20040;-90
2023/03/20 09:41:21;;;;;;;13.32;5.60;;;10.30;99.90;;;;;;5072565;28;20048;-90
2023/03/20 09:44:05;;;;;;;9.77;4.47;;;10.30;99.90;;;;;;5079086;28;20044;-90
2023/03/20 09:46:53;;;;;;;16.55;6.68;;;10.40;99.90;;;;;;5079627;28;20036;-90
2023/03/20 09:49:35;;;;;;;12.77;5.55;;;10.40;99.90;;;;;;5081625;28;20040;-91
2023/03/20 09:52:17;;;;;;;12.48;5.22;;;10.40;99.90;;;;;;5063389;28;20117;-92
2023/03/20 09:54:46;;;;;;;12.10;4.75;;;10.40;99.90;;;;;;5067245;28;20101;-91
2023/03/20 09:57:39;;;;;;;11.60;5.43;;;10.40;99.90;;;;;;5090175;28;20032;-92
2023/03/20 10:00:28;;;;;;;11.63;5.20;;;10.50;99.90;;;;;;5067187;28;20131;-91
2023/03/20 10:03:17;;;;;;;9.82;4.40;;;10.50;99.90;;;;;;5075692;28;20097;-91
2023/03/20 10:06:00;;;;;;;13.32;4.65;;;10.60;99.90;;;;;;5094247;28;20048;-92
2023/03/20 10:08:31;;;;;;;9.70;3.75;;;10.60;99.90;;;;;;5076895;28;20051;-92
2023/03/20 10:11:35;;;;;;;10.95;4.47;;;10.70;99.90;;;;;;5093333;28;20378;-92
2023/03/20 10:14:09;;;;;;;13.07;5.05;;;10.70;99.90;;;;;;5057443;28;20130;-92
2023/03/20 10:16:54;;;;;;;15.18;5.45;;;10.80;99.90;;;;;;5077128;28;20443;-92
2023/03/20 10:19:59;;;;;;;12.15;5.15;;;10.80;99.90;;;;;;5093450;28;20040;-91
2023/03/20 10:22:38;;;;;;;10.40;3.97;;;10.90;99.90;;;;;;5076876;28;20172;-92
2023/03/20 10:25:07;;;;;;;10.57;5.15;;;10.90;99.90;;;;;;5092713;28;20044;-91
2023/03/20 10:27:48;;;;;;;11.30;4.90;;;10.90;99.90;;;;;;5074054;28;20153;-93
2023/03/20 10:30:23;;;;;;;13.95;4.55;;;11.00;99.90;;;;;;5075977;28;20047;-90
2023/03/20 10:32:54;;;;;;;11.27;4.18;;;10.90;99.90;;;;;;5067863;28;20047;-91
2023/03/20 10:35:24;;;;;;;14.27;6.47;;;10.90;99.90;;;;;;5093213;28;20051;-90
2023/03/20 10:38:03;;;;;;;12.95;5.72;;;10.90;99.90;;;;;;5092302;28;20114;-90
2023/03/20 10:40:34;;;;;;;13.07;5.57;;;10.90;99.90;;;;;;5092629;28;20402;-90
2023/03/20 10:43:20;;;;;;;15.80;5.25;;;10.70;99.90;;;;;;5091890;28;20067;-90
2023/03/20 10:45:51;;;;;;;16.65;5.72;;;10.60;99.90;;;;;;5093337;28;20051;-91
2023/03/20 10:48:35;;;;;;;12.48;6.15;;;10.50;99.90;;;;;;5092355;28;20040;-90
2023/03/20 10:51:02;;;;;;;14.13;6.22;;;10.50;99.90;;;;;;5076136;28;20119;-91
2023/03/20 10:53:48;;;;;;;13.30;6.07;;;10.50;99.90;;;;;;5076257;28;20036;-91
2023/03/20 10:56:31;;;;;;;13.10;5.38;;;10.50;99.90;;;;;;5075063;28;20032;-91
2023/03/20 10:59:03;;;;;;;15.18;6.00;;;10.50;99.90;;;;;;5089212;28;20127;-90
2023/03/20 11:01:28;;;;;;;10.73;5.67;;;10.50;99.90;;;;;;5079557;28;20086;-90
2023/03/20 11:03:55;;;;;;;15.82;6.05;;;10.40;99.90;;;;;;5074542;28;20036;-90
2023/03/20 11:06:32;;;;;;;13.57;7.18;;;10.30;99.90;;;;;;5074564;28;20036;-90
2023/03/20 11:09:17;;;;;;;15.25;7.40;;;10.30;99.90;;;;;;5074622;28;20066;-90
2023/03/20 11:11:48;;;;;;;15.73;6.20;;;10.20;99.90;;;;;;5068765;28;20101;-90
2023/03/20 11:14:25;;;;;;;10.82;5.40;;;10.10;99.90;;;;;;5081531;28;20120;-90
2023/03/20 11:16:59;;;;;;;13.65;6.72;;;10.10;99.90;;;;;;5068332;28;20040;-91
2023/03/20 11:19:25;;;;;;;15.35;6.35;;;10.00;99.90;;;;;;5066180;28;20028;-90
2023/03/20 11:21:55;;;;;;;13.73;5.78;;;10.00;99.90;;;;;;5086444;28;20104;-91
2023/03/20 11:24:33;;;;;;;12.52;5.03;;;10.00;99.90;;;;;;5062701;28;20040;-91
2023/03/20 11:27:14;;;;;;;18.63;5.90;;;10.00;99.90;;;;;;5082757;28;20040;-90
2023/03/20 11:29:41;;;;;;;13.88;5.95;;;10.00;99.90;;;;;;5074405;28;20109;-91
2023/03/20 11:32:18;;;;;;;10.20;4.07;;;10.00;99.90;;;;;;5074314;28;20040;-91
2023/03/20 11:34:44;;;;;;;11.55;4.40;;;10.00;99.90;;;;;;5091381;28;20489;-91
2023/03/20 11:37:32;;;;;;;10.15;4.28;;;10.00;99.90;;;;;;5073849;28;20092;-91
2023/03/20 11:40:30;;;;;;;13.35;4.38;;;10.00;99.90;;;;;;5074315;28;20042;-91
2023/03/20 11:43:01;;;;;;;11.27;5.07;;;10.00;99.90;;;;;;5074589;28;20456;-91
2023/03/20 11:45:35;;;;;;;13.65;6.13;;;10.00;99.90;;;;;;5090600;28;20032;-92
2023/03/20 11:48:02;;;;;;;14.73;5.93;;;10.10;99.90;;;;;;5074310;28;20032;-90
2023/03/20 11:50:35;;;;;;;13.10;5.90;;;10.10;99.90;;;;;;5073924;28;20424;-92
2023/03/20 11:53:20;;;;;;;9.50;4.82;;;10.10;99.90;;;;;;5074339;28;20047;-92
2023/03/20 11:56:04;;;;;;;12.05;5.10;;;10.20;99.90;;;;;;5069920;28;20042;-91
2023/03/20 11:58:31;;;;;;;14.05;5.32;;;10.10;99.90;;;;;;5083784;28;20036;-91
2023/03/20 12:00:57;;;;;;;14.25;5.95;;;10.20;99.90;;;;;;5065034;28;20508;-90
2023/03/20 12:03:39;;;;;;;11.43;5.38;;;10.20;99.90;;;;;;5065485;28;20123;-91
2023/03/20 12:06:11;;;;;;;14.88;4.95;;;10.10;99.90;;;;;;5091453;28;20396;-91
2023/03/20 12:08:40;;;;;;;12.68;5.85;;;10.00;99.90;;;;;;5073459;28;20032;-91
2023/03/20 12:11:42;;;;;;;16.60;5.80;;;10.00;99.90;;;;;;5091525;28;20093;-91
2023/03/20 12:14:29;;;;;;;16.20;6.10;;;10.00;99.90;;;;;;5069882;28;20521;-91
2023/03/20 12:17:23;;;;;;;14.38;5.63;;;9.90;99.90;;;;;;5073717;28;20476;-92
2023/03/20 12:19:52;;;;;;;12.27;6.10;;;10.00;99.90;;;;;;5091254;28;20677;-91
2023/03/20 12:22:26;;;;;;;10.45;4.82;;;10.00;99.90;;;;;;5070763;28;20032;-91
2023/03/20 12:25:06;;;;;;;10.73;3.78;;;10.00;99.90;;;;;;5089698;28;20043;-90
2023/03/20 12:27:36;;;;;;;12.55;4.45;;;10.10;99.90;;;;;;5089122;28;20065;-91
2023/03/20 12:30:26;;;;;;;12.52;4.72;;;10.10;99.90;;;;;;5065746;28;20389;-91
2023/03/20 12:33:11;;;;;;;9.90;3.58;;;10.10;99.90;;;;;;5081661;28;20051;-91
2023/03/20 12:35:43;;;;;;;7.70;3.30;;;10.10;99.90;;;;;;5061237;28;20029;-91
2023/03/20 12:38:35;;;;;;;8.30;3.45;;;10.10;99.90;;;;;;5084074;28;20421;-91
2023/03/20 12:41:14;;;;;;;5.27;2.20;;;10.10;99.90;;;;;;5064011;28;20087;-90
2023/03/20 12:44:17;;;;;;;7.80;3.47;;;10.20;99.90;;;;;;5062946;28;20365;-90
2023/03/20 12:47:01;;;;;;;8.30;2.85;;;10.20;99.90;;;;;;5064617;28;20032;-90
2023/03/20 12:49:27;;;;;;;8.68;2.92;;;10.20;99.90;;;;;;5072452;28;20075;-90
2023/03/20 12:52:00;;;;;;;8.57;3.30;;;10.10;99.90;;;;;;5073712;28;20075;-90
2023/03/20 12:54:29;;;;;;;11.38;3.88;;;10.10;99.90;;;;;;5073819;28;20408;-91
2023/03/20 12:57:08;;;;;;;7.07;2.70;;;10.00;99.90;;;;;;5073153;28;20044;-90
2023/03/20 13:00:11;;;;;;;8.60;2.65;;;10.00;99.90;;;;;;5089480;28;20485;-90
2023/03/20 13:03:05;;;;;;;7.30;2.55;;;9.90;99.90;;;;;;5032995;28;20495;-91
2023/03/20 13:06:08;;;;;;;10.43;3.45;;;9.90;99.90;;;;;;5064020;28;20070;-90
2023/03/20 13:08:51;;;;;;;9.85;3.28;;;10.00;99.90;;;;;;5082858;28;20088;-90